Search for airport 
image banner adimage banner adimage banner ad
image banner ad

CA55 - Mission Hospital Helistop

Located in Mission Viejo, United States

ICAO - CA55, IATA -

Data provided by Airmate  

General information

Coordinates: N33°33'39" W117°39'58"
Elevation is 460 feet MSL.
Magnetic variation is 14° East
View others Airports in California

Operational data

Special qualification required
Current time UTC:
Current local time:
METAR: KSNA 211053Z AUTO 20004KT 10SM OVC013 18/14 A2993 RMK AO2 SLP134 T01830139
TAF: KSNA 210520Z 2106/2206 VRB05KT P6SM OVC010 FM211200 VRB04KT 5SM HZ OVC008 FM211600 VRB04KT P6SM BKN010 FM211800 22010KT P6SM FEW013 FM220200 23005KT P6SM SCT010
View NOTAMs / SUP AIP / TFR affecting this airport [VIEW]
Communications frequencies: [VIEW]

Runways:

Airport contact information

Address: Mission Viejo United States

Satellite view of CA55